Time;durP1;ratioP1;P1;durP2;ratioP2;P2;SDS_P1;SDS_P2;PMS_P1;PMS_P2;Temp;Humidity;BMP_temperature;BMP_pressure;BME280_temperature;BME280_humidity;BME280_pressure;Samples;Min_cycle;Max_cycle;Signal;HPM_P1;HPM_P2
2021/01/13 00:00:07;;;;;;;15.30;10.75;;;9.10;80.30;;;;;;5049806;28;20025;-74
2021/01/13 00:02:34;;;;;;;11.73;10.55;;;9.00;80.10;;;;;;5043271;28;20067;-75
2021/01/13 00:05:00;;;;;;;13.13;11.75;;;9.10;80.30;;;;;;5056563;28;20078;-76
2021/01/13 00:07:26;;;;;;;12.13;10.98;;;9.10;80.30;;;;;;5046736;28;20029;-76
2021/01/13 00:09:52;;;;;;;12.10;10.90;;;9.00;80.10;;;;;;5062601;28;20024;-74
2021/01/13 00:12:18;;;;;;;12.13;10.88;;;9.00;80.10;;;;;;5050474;28;20503;-75
2021/01/13 00:14:44;;;;;;;12.43;11.05;;;9.00;80.10;;;;;;5058295;28;20110;-75
2021/01/13 00:17:10;;;;;;;12.25;10.90;;;9.00;80.10;;;;;;5062111;28;20132;-75
2021/01/13 00:19:37;;;;;;;12.27;11.07;;;9.00;80.10;;;;;;5056313;28;20025;-75
2021/01/13 00:22:04;;;;;;;13.38;11.52;;;9.00;80.10;;;;;;5059812;28;20320;-75
2021/01/13 00:24:30;;;;;;;12.18;11.07;;;9.00;80.10;;;;;;5048183;28;20880;-74
2021/01/13 00:26:59;;;;;;;11.93;10.73;;;9.00;80.10;;;;;;5044375;28;20082;-74
2021/01/13 00:29:25;;;;;;;10.95;9.85;;;9.00;80.10;;;;;;5053665;28;20502;-75
2021/01/13 00:31:58;;;;;;;12.23;11.10;;;9.00;80.10;;;;;;5063978;28;20036;-74
2021/01/13 00:34:25;;;;;;;11.85;10.65;;;9.00;80.10;;;;;;5063136;28;20097;-74
2021/01/13 00:36:51;;;;;;;13.18;10.40;;;9.00;80.10;;;;;;5062601;28;20032;-74
2021/01/13 00:39:17;;;;;;;11.50;10.40;;;9.00;80.10;;;;;;5062602;28;20039;-75
2021/01/13 00:41:43;;;;;;;11.48;10.38;;;8.90;79.90;;;;;;5062727;28;20032;-74
2021/01/13 00:44:10;;;;;;;12.93;11.70;;;9.00;80.10;;;;;;5062657;28;20119;-75
2021/01/13 00:46:41;;;;;;;12.77;11.48;;;9.00;80.10;;;;;;5063081;28;20492;-74
2021/01/13 00:49:09;;;;;;;11.88;10.52;;;9.00;80.10;;;;;;5067704;28;20028;-75
2021/01/13 00:51:40;;;;;;;12.60;11.50;;;8.90;79.90;;;;;;5066332;28;20036;-75
2021/01/13 00:54:07;;;;;;;12.18;10.98;;;8.90;79.90;;;;;;5064067;28;20112;-74
2021/01/13 00:56:46;;;;;;;12.35;10.95;;;8.90;79.90;;;;;;5047282;28;20044;-76
2021/01/13 00:59:13;;;;;;;13.27;11.88;;;8.90;79.90;;;;;;5046556;28;20033;-74
2021/01/13 01:01:41;;;;;;;13.27;11.98;;;8.90;79.90;;;;;;5046117;28;20037;-74
2021/01/13 01:04:08;;;;;;;13.48;12.18;;;8.90;79.90;;;;;;5047103;28;20025;-75
2021/01/13 01:06:34;;;;;;;14.20;12.07;;;8.90;79.90;;;;;;5047788;28;20369;-74
2021/01/13 01:09:01;;;;;;;13.10;11.90;;;8.90;79.90;;;;;;5045733;28;20021;-74
2021/01/13 01:11:35;;;;;;;14.02;12.52;;;8.90;80.40;;;;;;5029695;28;20523;-75
2021/01/13 01:14:02;;;;;;;12.80;11.60;;;8.90;80.00;;;;;;5045606;28;20044;-74
2021/01/13 01:16:34;;;;;;;13.30;12.10;;;8.80;79.80;;;;;;5046007;28;20080;-74
2021/01/13 01:19:00;;;;;;;12.63;11.30;;;8.80;79.80;;;;;;5047919;28;20102;-74
2021/01/13 01:21:26;;;;;;;14.48;11.55;;;8.80;79.80;;;;;;5046363;28;20086;-74
2021/01/13 01:23:53;;;;;;;13.30;11.90;;;8.80;79.80;;;;;;5046962;28;20457;-74
2021/01/13 01:26:19;;;;;;;12.70;11.38;;;8.80;79.80;;;;;;5047209;28;20504;-75
2021/01/13 01:28:45;;;;;;;12.73;11.43;;;8.80;79.80;;;;;;5046033;28;20047;-76
2021/01/13 01:31:11;;;;;;;12.70;11.50;;;8.80;79.80;;;;;;5047089;28;20380;-74
2021/01/13 01:33:37;;;;;;;13.55;12.20;;;8.80;79.80;;;;;;5047058;28;20387;-74
2021/01/13 01:36:03;;;;;;;14.82;13.18;;;8.80;79.80;;;;;;5029482;28;20628;-74
2021/01/13 01:38:29;;;;;;;13.15;11.95;;;8.80;79.80;;;;;;5048299;28;20510;-74
2021/01/13 01:41:06;;;;;;;16.15;13.73;;;8.80;79.80;;;;;;5065842;28;20446;-74
2021/01/13 01:43:32;;;;;;;14.18;12.70;;;8.80;79.80;;;;;;5066810;28;20029;-74
2021/01/13 01:45:59;;;;;;;12.85;11.65;;;8.80;79.80;;;;;;5065655;28;20035;-74
2021/01/13 01:48:51;;;;;;;12.75;11.18;;;8.80;79.80;;;;;;5066681;28;20021;-75
2021/01/13 01:51:26;;;;;;;13.85;12.60;;;8.80;79.80;;;;;;5048385;28;20051;-74
2021/01/13 01:54:07;;;;;;;13.48;12.15;;;8.80;79.80;;;;;;5054324;28;20412;-75
2021/01/13 01:56:38;;;;;;;13.85;12.52;;;8.80;79.80;;;;;;5071155;28;20398;-75
2021/01/13 01:59:13;;;;;;;14.00;12.57;;;8.80;79.80;;;;;;5058220;28;20040;-74
2021/01/13 02:01:43;;;;;;;15.20;13.73;;;8.80;79.80;;;;;;5044972;28;20044;-75
2021/01/13 02:04:30;;;;;;;14.77;13.27;;;8.80;79.80;;;;;;5045287;28;20112;-74
2021/01/13 02:06:59;;;;;;;14.25;12.80;;;8.80;79.80;;;;;;5045441;28;20128;-74
2021/01/13 02:09:29;;;;;;;15.60;14.02;;;8.70;79.60;;;;;;5044939;28;20025;-74
2021/01/13 02:11:57;;;;;;;15.80;13.88;;;8.70;79.60;;;;;;5045764;28;20071;-75
2021/01/13 02:14:25;;;;;;;16.20;14.07;;;8.70;79.60;;;;;;5044364;28;20040;-75
2021/01/13 02:16:53;;;;;;;17.15;13.98;;;8.70;79.70;;;;;;5046240;28;20051;-75
2021/01/13 02:19:46;;;;;;;15.23;13.82;;;8.70;79.60;;;;;;5028139;28;20477;-75
2021/01/13 02:22:15;;;;;;;14.73;13.13;;;8.70;79.70;;;;;;5045166;28;20041;-75
2021/01/13 02:24:59;;;;;;;16.55;14.93;;;8.70;79.60;;;;;;5045803;28;20478;-75
2021/01/13 02:27:53;;;;;;;15.30;13.50;;;8.70;79.60;;;;;;5046592;28;20025;-75
2021/01/13 02:30:24;;;;;;;14.93;13.43;;;8.70;79.60;;;;;;5045995;28;20110;-75
2021/01/13 02:32:55;;;;;;;16.23;14.63;;;8.70;79.60;;;;;;5056350;28;20098;-74
2021/01/13 02:35:24;;;;;;;15.85;14.25;;;8.70;79.60;;;;;;5065695;28;20036;-74
2021/01/13 02:38:06;;;;;;;15.85;14.32;;;8.70;79.60;;;;;;5066067;28;20035;-74
2021/01/13 02:40:34;;;;;;;16.50;14.90;;;8.70;79.60;;;;;;5049519;28;20359;-74
2021/01/13 02:43:03;;;;;;;16.92;15.15;;;8.70;79.60;;;;;;5045937;28;20068;-74
2021/01/13 02:45:46;;;;;;;16.52;14.80;;;8.70;79.60;;;;;;5050617;28;20128;-73
2021/01/13 02:48:20;;;;;;;17.52;15.60;;;8.70;79.60;;;;;;5059371;28;20045;-73
2021/01/13 02:51:13;;;;;;;15.50;13.95;;;8.70;79.80;;;;;;5066137;28;20048;-74
2021/01/13 02:53:42;;;;;;;15.80;14.20;;;8.70;80.10;;;;;;5049147;28;20067;-75
2021/01/13 02:56:16;;;;;;;17.52;15.80;;;8.70;79.60;;;;;;5068195;28;20084;-74
2021/01/13 02:58:45;;;;;;;17.10;15.43;;;8.70;79.60;;;;;;5068251;28;20021;-74
2021/01/13 03:01:11;;;;;;;16.13;14.43;;;8.70;79.60;;;;;;5066163;28;20651;-74
2021/01/13 03:03:37;;;;;;;17.45;15.73;;;8.70;79.60;;;;;;5065597;28;20065;-73
2021/01/13 03:06:06;;;;;;;17.30;14.40;;;8.60;79.40;;;;;;5048119;28;20056;-73
2021/01/13 03:08:59;;;;;;;17.02;15.32;;;8.60;79.50;;;;;;5050488;28;20064;-74
2021/01/13 03:11:25;;;;;;;17.15;15.38;;;8.60;79.50;;;;;;5049271;28;20514;-73
2021/01/13 03:13:57;;;;;;;17.38;15.57;;;8.70;79.60;;;;;;5048629;28;20402;-73
2021/01/13 03:16:24;;;;;;;16.80;15.10;;;8.70;79.60;;;;;;5049754;28;20646;-74
2021/01/13 03:19:08;;;;;;;17.00;15.20;;;8.70;79.60;;;;;;5048721;28;20039;-74
2021/01/13 03:21:50;;;;;;;16.80;15.02;;;8.70;79.60;;;;;;5031954;28;20467;-74
2021/01/13 03:24:28;;;;;;;17.25;15.60;;;8.70;79.60;;;;;;5049197;28;20032;-74
2021/01/13 03:26:55;;;;;;;17.27;15.57;;;8.70;79.60;;;;;;5049763;28;20035;-73
2021/01/13 03:29:24;;;;;;;17.25;15.45;;;8.70;79.60;;;;;;5049213;28;20029;-74
2021/01/13 03:32:16;;;;;;;19.30;15.77;;;8.70;79.60;;;;;;5048615;28;20029;-74
2021/01/13 03:35:15;;;;;;;17.35;14.07;;;8.70;79.60;;;;;;5031632;28;20044;-73
2021/01/13 03:37:55;;;;;;;16.90;15.15;;;8.70;79.60;;;;;;5047640;28;20037;-74
2021/01/13 03:40:23;;;;;;;16.73;15.00;;;8.70;79.50;;;;;;5047980;28;20470;-73
2021/01/13 03:42:52;;;;;;;16.17;14.32;;;8.70;79.50;;;;;;5049117;28;20036;-74
2021/01/13 03:45:30;;;;;;;15.30;13.77;;;8.70;79.60;;;;;;5049908;28;20036;-73
2021/01/13 03:48:10;;;;;;;17.33;15.57;;;8.70;79.60;;;;;;5058150;28;20040;-74
2021/01/13 03:50:43;;;;;;;16.77;15.00;;;8.70;79.60;;;;;;5049623;28;20021;-73
2021/01/13 03:53:14;;;;;;;15.90;14.35;;;8.70;79.60;;;;;;5064715;28;20119;-74
2021/01/13 03:55:43;;;;;;;21.15;15.20;;;8.70;79.60;;;;;;5062157;28;20182;-73
2021/01/13 03:58:09;;;;;;;17.58;15.55;;;8.70;79.60;;;;;;5068503;28;20123;-73
2021/01/13 04:00:59;;;;;;;15.27;13.68;;;8.70;79.60;;;;;;5069436;28;20535;-73
2021/01/13 04:03:35;;;;;;;20.88;15.20;;;8.70;79.60;;;;;;5052022;28;20538;-74
2021/01/13 04:06:04;;;;;;;17.65;15.10;;;8.70;79.60;;;;;;5064661;28;20116;-74
2021/01/13 04:08:34;;;;;;;17.77;15.60;;;8.70;79.60;;;;;;5064608;28;20035;-74
2021/01/13 04:11:00;;;;;;;19.10;16.48;;;8.70;79.60;;;;;;5063793;28;20040;-74
2021/01/13 04:13:40;;;;;;;16.85;15.05;;;8.70;79.60;;;;;;5049432;28;20120;-75
2021/01/13 04:16:08;;;;;;;15.68;14.00;;;8.70;79.60;;;;;;5049193;28;20108;-74
2021/01/13 04:18:36;;;;;;;17.45;14.85;;;8.70;79.60;;;;;;5063251;28;20057;-74
2021/01/13 04:21:04;;;;;;;17.38;15.55;;;8.70;79.60;;;;;;5055209;28;20033;-75
2021/01/13 04:23:30;;;;;;;17.90;15.15;;;8.70;79.60;;;;;;5050599;28;20432;-75
2021/01/13 04:25:57;;;;;;;20.55;16.27;;;8.70;79.60;;;;;;5062989;28;20067;-75
2021/01/13 04:28:24;;;;;;;17.00;15.30;;;8.80;79.80;;;;;;5053513;28;20025;-76
2021/01/13 04:30:50;;;;;;;21.88;16.38;;;8.80;79.80;;;;;;5052065;28;20395;-75
2021/01/13 04:33:16;;;;;;;17.33;15.13;;;8.70;79.60;;;;;;5052793;28;20029;-75
2021/01/13 04:35:42;;;;;;;17.63;15.50;;;8.80;79.80;;;;;;5051037;28;20090;-74
2021/01/13 04:38:10;;;;;;;17.88;15.98;;;8.80;79.80;;;;;;5053568;28;20487;-75
2021/01/13 04:40:40;;;;;;;18.90;16.08;;;8.70;79.60;;;;;;5053218;28;20106;-74
2021/01/13 04:43:09;;;;;;;18.88;15.90;;;8.80;79.80;;;;;;5052158;28;20109;-75
2021/01/13 04:45:43;;;;;;;16.85;14.68;;;8.80;79.80;;;;;;5053096;28;20025;-75
2021/01/13 04:48:13;;;;;;;;;;;8.80;79.80;;;;;;5053294;28;20037;-75
2021/01/13 04:50:50;;;;;;;18.80;15.90;;;8.80;79.80;;;;;;5051458;28;19913;-73
2021/01/13 04:53:22;;;;;;;19.63;15.43;;;8.80;79.70;;;;;;5050848;28;20063;-76
2021/01/13 04:55:49;;;;;;;17.55;15.63;;;8.80;79.70;;;;;;5051057;28;20036;-75
2021/01/13 04:58:21;;;;;;;18.63;15.73;;;8.80;79.70;;;;;;5052196;28;20083;-74
2021/01/13 05:01:08;;;;;;;19.42;16.67;;;8.80;79.80;;;;;;5050425;28;20577;-75
2021/01/13 05:03:55;;;;;;;17.38;15.30;;;8.80;79.80;;;;;;5052436;28;20146;-75
2021/01/13 05:06:42;;;;;;;18.52;15.43;;;8.80;79.80;;;;;;5050792;28;20032;-74
2021/01/13 05:09:10;;;;;;;15.50;13.70;;;8.80;79.80;;;;;;5052428;28;20025;-75
2021/01/13 05:11:41;;;;;;;16.25;14.55;;;8.80;80.30;;;;;;5034472;28;20064;-74
2021/01/13 05:14:09;;;;;;;17.50;15.32;;;8.80;79.80;;;;;;5033948;28;20025;-75
2021/01/13 05:16:50;;;;;;;16.60;14.70;;;8.80;79.80;;;;;;5050656;28;20115;-75
2021/01/13 05:20:08;;;;;;;16.58;14.80;;;8.80;80.00;;;;;;5052454;28;20041;-75
2021/01/13 05:22:35;;;;;;;16.55;14.68;;;8.80;79.80;;;;;;5034855;28;20041;-75
2021/01/13 05:25:07;;;;;;;18.27;14.88;;;8.80;79.80;;;;;;5052324;28;20029;-75
2021/01/13 05:28:02;;;;;;;17.27;14.20;;;8.80;79.80;;;;;;5051045;28;20029;-74
2021/01/13 05:30:33;;;;;;;18.02;14.05;;;8.80;80.30;;;;;;5050080;28;20029;-74
2021/01/13 05:32:59;;;;;;;16.92;13.90;;;8.80;79.80;;;;;;5033354;28;20219;-75
2021/01/13 05:35:29;;;;;;;19.63;14.27;;;8.80;79.80;;;;;;5050276;28;20032;-74
2021/01/13 05:38:16;;;;;;;17.73;14.77;;;8.80;79.80;;;;;;5052062;28;20043;-74
2021/01/13 05:40:50;;;;;;;19.75;14.63;;;8.80;79.90;;;;;;5050892;28;20087;-74
2021/01/13 05:43:18;;;;;;;18.08;15.27;;;8.80;79.80;;;;;;5051390;28;20025;-74
2021/01/13 05:45:44;;;;;;;16.65;14.00;;;8.80;79.80;;;;;;5051626;28;20024;-74
2021/01/13 05:48:35;;;;;;;18.67;15.38;;;8.90;80.00;;;;;;5052469;28;20055;-75
2021/01/13 05:51:02;;;;;;;18.60;14.55;;;8.80;79.90;;;;;;5066811;28;20021;-74
2021/01/13 05:53:28;;;;;;;21.45;15.30;;;8.90;80.00;;;;;;5066851;28;20032;-75
2021/01/13 05:55:55;;;;;;;18.58;15.90;;;8.90;80.10;;;;;;5061650;28;20041;-74
2021/01/13 05:58:26;;;;;;;18.75;15.23;;;8.90;80.10;;;;;;5052905;28;20096;-75
2021/01/13 06:00:55;;;;;;;20.20;16.20;;;8.90;80.10;;;;;;5063515;28;20055;-75
2021/01/13 06:03:23;;;;;;;17.88;14.90;;;8.90;80.10;;;;;;5054809;28;20259;-74
2021/01/13 06:05:52;;;;;;;20.67;15.25;;;8.90;80.10;;;;;;5047415;28;20032;-74
2021/01/13 06:08:23;;;;;;;20.42;15.93;;;8.90;80.10;;;;;;5035677;28;20016;-74
2021/01/13 06:10:50;;;;;;;21.52;16.60;;;8.90;80.10;;;;;;5042107;28;20033;-74
2021/01/13 06:13:18;;;;;;;19.77;16.02;;;8.90;80.10;;;;;;5049653;28;20032;-74
2021/01/13 06:15:45;;;;;;;18.45;15.85;;;8.90;80.10;;;;;;5046812;28;20047;-74
2021/01/13 06:18:21;;;;;;;17.13;14.50;;;9.00;80.20;;;;;;5056092;28;20036;-75
2021/01/13 06:20:48;;;;;;;18.65;14.27;;;9.00;80.30;;;;;;5048791;28;20261;-74
2021/01/13 06:23:15;;;;;;;16.92;13.15;;;8.90;80.10;;;;;;5053038;28;20025;-75
2021/01/13 06:25:43;;;;;;;16.75;13.90;;;9.00;80.30;;;;;;5049660;28;20098;-74
2021/01/13 06:28:24;;;;;;;18.80;13.68;;;9.00;80.30;;;;;;5049560;28;20035;-74
2021/01/13 06:31:05;;;;;;;16.20;12.68;;;9.00;80.30;;;;;;5044542;28;20021;-74
2021/01/13 06:33:58;;;;;;;16.10;12.63;;;9.00;80.30;;;;;;5056752;28;20031;-76
2021/01/13 06:36:27;;;;;;;17.33;12.63;;;9.00;80.30;;;;;;5049663;28;20068;-75
2021/01/13 06:38:57;;;;;;;15.18;11.80;;;9.00;80.30;;;;;;5059805;28;20472;-75
2021/01/13 06:41:24;;;;;;;13.57;11.32;;;9.00;80.80;;;;;;5030983;28;20391;-76
2021/01/13 06:43:58;;;;;;;14.20;11.52;;;9.10;80.50;;;;;;5047170;28;20821;-76
2021/01/13 06:46:24;;;;;;;13.85;9.80;;;9.10;80.60;;;;;;5055359;28;20049;-75
2021/01/13 06:48:50;;;;;;;15.00;9.95;;;9.10;80.70;;;;;;5058250;28;20035;-75
2021/01/13 06:51:17;;;;;;;9.55;8.52;;;9.10;80.70;;;;;;5064315;28;20329;-74
2021/01/13 06:53:46;;;;;;;12.25;9.18;;;9.20;81.00;;;;;;5047342;28;20032;-75
2021/01/13 06:56:14;;;;;;;12.32;9.88;;;9.20;81.00;;;;;;5045072;28;20056;-75
2021/01/13 06:58:57;;;;;;;12.70;9.05;;;9.20;81.00;;;;;;5045495;28;20036;-76
2021/01/13 07:01:23;;;;;;;12.33;8.87;;;9.30;81.30;;;;;;5058244;28;20039;-74
2021/01/13 07:04:00;;;;;;;9.25;6.97;;;9.30;81.20;;;;;;5056185;28;20079;-74
2021/01/13 07:06:27;;;;;;;11.55;7.75;;;9.30;81.20;;;;;;5044047;28;20032;-74
2021/01/13 07:08:53;;;;;;;11.25;6.75;;;9.30;81.20;;;;;;5054680;28;20041;-74
2021/01/13 07:11:20;;;;;;;10.75;7.38;;;9.30;81.20;;;;;;5061751;28;20021;-74
2021/01/13 07:13:53;;;;;;;9.60;6.72;;;9.30;81.20;;;;;;5047279;28;20033;-76
2021/01/13 07:16:28;;;;;;;8.75;6.53;;;9.30;81.30;;;;;;5062495;28;20067;-76
2021/01/13 07:18:55;;;;;;;;;;;9.30;81.30;;;;;;5060580;28;20024;-74
2021/01/13 07:21:37;;;;;;;7.50;5.15;;;9.30;81.30;;;;;;5063419;28;20235;-74
2021/01/13 07:24:14;;;;;;;11.13;6.85;;;9.40;81.40;;;;;;5053522;28;20458;-74
2021/01/13 07:26:44;;;;;;;10.40;5.88;;;9.40;81.40;;;;;;5065100;28;20094;-74
2021/01/13 07:29:11;;;;;;;9.18;6.38;;;9.40;81.50;;;;;;5064963;28;20032;-74
2021/01/13 07:31:38;;;;;;;10.32;5.70;;;9.40;81.50;;;;;;5061971;28;20410;-74
2021/01/13 07:34:07;;;;;;;8.95;6.57;;;9.40;81.50;;;;;;5063405;28;20439;-74
2021/01/13 07:36:36;;;;;;;7.63;5.63;;;9.40;81.50;;;;;;5064467;28;20403;-75
2021/01/13 07:39:05;;;;;;;7.03;5.13;;;9.40;81.50;;;;;;5049219;28;20131;-74
2021/01/13 07:41:53;;;;;;;9.80;5.22;;;9.40;81.50;;;;;;5043205;28;20052;-75
2021/01/13 07:44:38;;;;;;;6.60;4.57;;;9.40;81.50;;;;;;5044342;28;20035;-74
2021/01/13 07:47:20;;;;;;;7.18;5.53;;;9.40;81.50;;;;;;5042667;28;20370;-74
2021/01/13 07:50:06;;;;;;;7.38;4.97;;;9.50;81.70;;;;;;5044664;28;20496;-74
2021/01/13 07:52:47;;;;;;;6.15;4.38;;;9.50;81.70;;;;;;5049824;28;20344;-74
2021/01/13 07:55:21;;;;;;;4.30;3.65;;;9.50;81.70;;;;;;5053165;28;20191;-73
2021/01/13 07:57:48;;;;;;;6.05;3.88;;;9.50;81.70;;;;;;5044941;28;20033;-75
2021/01/13 08:00:27;;;;;;;5.93;3.78;;;9.50;81.70;;;;;;5054030;28;20548;-75
2021/01/13 08:03:12;;;;;;;9.48;4.15;;;9.50;81.70;;;;;;5050627;28;20158;-74
2021/01/13 08:06:03;;;;;;;5.82;3.88;;;9.60;81.90;;;;;;5062346;28;20456;-73
2021/01/13 08:09:01;;;;;;;7.20;4.10;;;9.50;81.70;;;;;;5046070;28;20387;-74
2021/01/13 08:11:56;;;;;;;4.18;3.05;;;9.50;81.70;;;;;;5062441;28;20028;-74
2021/01/13 08:14:43;;;;;;;3.90;3.35;;;9.60;82.40;;;;;;5061848;28;20037;-74
2021/01/13 08:17:44;;;;;;;7.28;3.80;;;9.60;81.90;;;;;;5045010;28;20082;-75
2021/01/13 08:20:22;;;;;;;5.97;4.10;;;9.60;81.90;;;;;;5064666;28;20471;-74
2021/01/13 08:23:21;;;;;;;4.43;3.20;;;9.60;81.80;;;;;;5062652;28;20059;-74
2021/01/13 08:25:56;;;;;;;7.20;3.00;;;9.60;81.80;;;;;;5063781;28;20106;-74
2021/01/13 08:28:24;;;;;;;5.80;3.35;;;9.60;81.80;;;;;;5045997;28;20040;-74
2021/01/13 08:30:51;;;;;;;6.30;2.72;;;9.70;82.00;;;;;;5046060;28;20050;-74
2021/01/13 08:33:25;;;;;;;5.75;3.10;;;9.60;81.90;;;;;;5061906;28;20063;-75
2021/01/13 08:35:57;;;;;;;7.38;3.75;;;9.70;82.10;;;;;;5060032;28;20143;-74
2021/01/13 08:38:23;;;;;;;7.63;3.03;;;9.70;82.10;;;;;;5052928;28;20032;-75
2021/01/13 08:40:50;;;;;;;5.30;2.80;;;9.70;82.10;;;;;;5055538;28;20039;-74
2021/01/13 08:43:18;;;;;;;7.05;3.05;;;9.70;82.20;;;;;;5062122;28;20563;-74
2021/01/13 08:45:49;;;;;;;4.50;2.65;;;9.70;82.10;;;;;;5062600;28;20020;-74
2021/01/13 08:48:21;;;;;;;6.38;3.03;;;9.70;82.10;;;;;;5045684;28;20097;-76
2021/01/13 08:51:05;;;;;;;6.10;3.13;;;9.70;82.10;;;;;;5062318;28;20060;-74
2021/01/13 08:53:32;;;;;;;4.33;2.90;;;9.70;82.20;;;;;;5061984;28;20444;-74
2021/01/13 08:55:59;;;;;;;5.05;2.50;;;9.70;82.20;;;;;;5045314;28;20432;-74
2021/01/13 08:58:29;;;;;;;8.40;2.60;;;9.80;82.30;;;;;;5030034;28;20148;-75
2021/01/13 09:01:05;;;;;;;4.32;2.40;;;9.80;82.30;;;;;;5044543;28;20483;-74
2021/01/13 09:03:37;;;;;;;5.13;3.25;;;9.80;82.30;;;;;;5047757;28;20908;-75
2021/01/13 09:06:24;;;;;;;4.35;2.72;;;9.80;82.30;;;;;;5042602;28;20224;-75
2021/01/13 09:08:54;;;;;;;6.07;2.58;;;9.80;82.30;;;;;;5042700;28;20481;-77
2021/01/13 09:11:33;;;;;;;5.35;2.80;;;9.80;82.30;;;;;;5045685;28;20104;-76
2021/01/13 09:14:24;;;;;;;5.05;2.47;;;9.80;82.30;;;;;;5050099;28;20044;-75
2021/01/13 09:16:51;;;;;;;6.35;2.83;;;9.90;82.50;;;;;;5065460;28;20044;-74
2021/01/13 09:19:40;;;;;;;5.10;2.50;;;9.90;82.40;;;;;;5064826;28;20036;-75
2021/01/13 09:22:09;;;;;;;5.25;2.67;;;9.90;82.50;;;;;;5051355;28;20047;-74
2021/01/13 09:24:39;;;;;;;5.20;2.38;;;9.90;82.40;;;;;;5047158;28;20021;-72
2021/01/13 09:27:07;;;;;;;9.63;2.70;;;10.00;82.70;;;;;;5045298;28;20024;-74
2021/01/13 09:29:54;;;;;;;6.68;2.60;;;10.00;82.60;;;;;;5045757;28;20140;-74
2021/01/13 09:32:22;;;;;;;6.85;2.78;;;10.00;82.60;;;;;;5047638;28;20308;-74
2021/01/13 09:34:49;;;;;;;5.90;2.70;;;10.00;82.60;;;;;;5047149;28;20028;-74
2021/01/13 09:37:16;;;;;;;4.70;2.65;;;10.00;82.60;;;;;;5046706;28;20526;-75
2021/01/13 09:40:00;;;;;;;5.30;2.72;;;10.00;82.60;;;;;;5045441;28;20480;-73
2021/01/13 09:42:37;;;;;;;11.95;2.90;;;10.00;82.60;;;;;;5045784;28;20114;-75
2021/01/13 09:45:05;;;;;;;5.35;2.55;;;10.00;82.60;;;;;;5045578;28;20602;-75
2021/01/13 09:47:32;;;;;;;9.02;2.38;;;10.10;82.80;;;;;;5046708;28;20435;-75
2021/01/13 09:50:04;;;;;;;6.45;1.95;;;10.10;82.70;;;;;;5028560;28;20033;-75
2021/01/13 09:52:42;;;;;;;5.63;2.75;;;10.10;82.70;;;;;;5061473;28;20314;-75
2021/01/13 09:55:09;;;;;;;5.80;2.13;;;10.10;82.80;;;;;;5038721;28;20083;-74
2021/01/13 09:57:37;;;;;;;11.30;2.83;;;10.10;82.70;;;;;;5044731;28;20168;-75
2021/01/13 10:00:10;;;;;;;7.20;2.33;;;10.10;82.70;;;;;;5044967;28;20037;-75
2021/01/13 10:02:42;;;;;;;5.05;2.35;;;10.20;82.90;;;;;;5014775;28;20139;-77
2021/01/13 10:05:09;;;;;;;6.20;2.10;;;10.20;82.90;;;;;;5061437;28;20030;-75
2021/01/13 10:07:36;;;;;;;3.70;1.65;;;10.20;82.90;;;;;;5045608;28;20118;-74
2021/01/13 10:10:06;;;;;;;6.63;2.45;;;10.20;82.80;;;;;;5044537;28;20021;-75
2021/01/13 10:12:37;;;;;;;5.35;3.08;;;10.30;83.00;;;;;;5027841;28;20056;-75
2021/01/13 10:15:13;;;;;;;8.18;2.60;;;10.30;83.00;;;;;;5045749;28;20028;-75
2021/01/13 10:17:41;;;;;;;9.23;3.15;;;10.30;82.90;;;;;;5043304;28;20545;-75
2021/01/13 10:20:21;;;;;;;3.28;2.00;;;10.30;82.90;;;;;;5043228;28;20413;-74
2021/01/13 10:22:48;;;;;;;6.88;2.55;;;10.40;83.10;;;;;;5051277;28;20455;-76
2021/01/13 10:25:28;;;;;;;7.50;2.47;;;10.40;83.00;;;;;;5064369;28;20033;-75
2021/01/13 10:27:55;;;;;;;5.60;2.60;;;10.40;83.10;;;;;;5047741;28;20760;-75
2021/01/13 10:30:22;;;;;;;7.55;3.20;;;10.40;83.00;;;;;;5048104;28;20329;-75
2021/01/13 10:32:56;;;;;;;6.95;2.60;;;10.40;83.00;;;;;;5064152;28;20032;-76
2021/01/13 10:35:23;;;;;;;9.35;3.15;;;10.40;83.00;;;;;;5063739;28;20028;-75
2021/01/13 10:37:57;;;;;;;6.18;2.63;;;10.40;83.00;;;;;;5063596;28;20725;-76
2021/01/13 10:40:24;;;;;;;11.40;3.20;;;10.40;83.00;;;;;;5063881;28;20032;-75
2021/01/13 10:42:53;;;;;;;7.68;2.63;;;10.50;83.20;;;;;;5063895;28;20281;-75
2021/01/13 10:45:20;;;;;;;4.38;2.05;;;10.50;83.20;;;;;;5063392;28;20024;-75
2021/01/13 10:47:54;;;;;;;8.77;2.22;;;10.50;83.20;;;;;;5065116;28;20468;-76
2021/01/13 10:50:29;;;;;;;6.80;2.88;;;10.60;83.30;;;;;;5063635;28;20036;-75
2021/01/13 10:53:00;;;;;;;8.15;2.92;;;10.60;83.30;;;;;;5065410;28;20408;-77
2021/01/13 10:55:29;;;;;;;10.20;3.25;;;10.70;83.40;;;;;;5048411;28;20479;-77
2021/01/13 10:57:56;;;;;;;9.80;3.33;;;10.70;83.30;;;;;;5044890;28;20033;-77
2021/01/13 11:00:28;;;;;;;5.32;2.22;;;10.70;83.30;;;;;;5043534;28;20029;-75
2021/01/13 11:02:55;;;;;;;12.13;2.65;;;10.70;83.30;;;;;;5026774;28;20546;-75
2021/01/13 11:05:22;;;;;;;10.77;2.55;;;10.80;83.40;;;;;;5043880;28;20052;-75
2021/01/13 11:07:51;;;;;;;7.38;2.38;;;10.80;83.40;;;;;;5043190;28;20021;-75
2021/01/13 11:10:22;;;;;;;11.18;2.58;;;10.80;83.40;;;;;;5044989;28;20086;-74
2021/01/13 11:13:02;;;;;;;10.57;2.75;;;10.80;83.30;;;;;;5043464;28;20341;-75
2021/01/13 11:15:29;;;;;;;6.50;2.22;;;10.90;83.40;;;;;;5043260;28;20282;-77
2021/01/13 11:17:56;;;;;;;11.90;2.92;;;10.90;83.40;;;;;;5043508;28;20033;-79
2021/01/13 11:20:23;;;;;;;8.18;3.05;;;10.90;83.30;;;;;;5028239;28;20064;-76
2021/01/13 11:22:57;;;;;;;8.93;2.80;;;10.90;83.40;;;;;;5046407;28;20033;-76
2021/01/13 11:25:41;;;;;;;8.85;2.92;;;11.00;83.70;;;;;;5044208;28;20044;-75
2021/01/13 11:28:09;;;;;;;;;;;11.00;83.70;;;;;;5043653;28;20025;-76
2021/01/13 11:30:37;;;;;;;9.70;2.95;;;11.00;83.70;;;;;;5043087;28;19916;-75
2021/01/13 11:33:05;;;;;;;13.82;3.28;;;11.10;83.70;;;;;;5044166;28;20086;-77
2021/01/13 11:35:53;;;;;;;12.45;3.15;;;11.10;83.70;;;;;;5042696;28;20348;-75
2021/01/13 11:38:37;;;;;;;7.47;2.65;;;11.20;83.90;;;;;;5043024;28;20160;-76
2021/01/13 11:41:28;;;;;;;11.35;3.65;;;11.20;83.80;;;;;;5026383;28;20123;-76
2021/01/13 11:44:19;;;;;;;9.20;5.60;;;11.20;83.70;;;;;;5026806;28;20025;-75
2021/01/13 11:46:50;;;;;;;15.57;6.45;;;11.20;83.70;;;;;;5043668;28;20136;-74
2021/01/13 11:49:25;;;;;;;6.82;4.57;;;11.20;83.70;;;;;;5044223;28;20032;-75
2021/01/13 11:51:53;;;;;;;11.70;5.00;;;11.20;83.80;;;;;;5044258;28;20052;-76
2021/01/13 11:54:30;;;;;;;8.60;4.80;;;11.30;84.00;;;;;;5047456;28;20111;-76
2021/01/13 11:57:28;;;;;;;7.53;4.28;;;11.30;84.00;;;;;;5063954;28;20123;-76
2021/01/13 12:00:11;;;;;;;11.98;4.60;;;11.30;84.00;;;;;;5044119;28;20059;-76
2021/01/13 12:02:38;;;;;;;12.27;4.53;;;11.30;83.90;;;;;;5047929;28;20395;-75
2021/01/13 12:05:06;;;;;;;10.13;4.72;;;11.40;84.00;;;;;;5064580;28;20035;-75
2021/01/13 12:07:32;;;;;;;7.20;3.90;;;11.40;84.00;;;;;;5063183;28;20028;-74
2021/01/13 12:10:09;;;;;;;5.75;3.63;;;11.40;84.00;;;;;;5042929;28;20424;-74
2021/01/13 12:12:36;;;;;;;9.40;3.92;;;11.40;84.00;;;;;;5028000;28;20159;-75
2021/01/13 12:15:08;;;;;;;10.65;3.83;;;11.40;83.90;;;;;;5044435;28;20479;-74
2021/01/13 12:17:48;;;;;;;9.05;3.72;;;11.40;83.90;;;;;;5059018;28;20136;-75
2021/01/13 12:20:27;;;;;;;12.75;4.38;;;11.40;83.90;;;;;;5059336;28;20032;-76
2021/01/13 12:22:53;;;;;;;9.88;3.97;;;11.40;83.90;;;;;;5043635;28;20040;-76
2021/01/13 12:25:26;;;;;;;11.15;3.63;;;11.40;83.90;;;;;;5042381;28;20024;-76
2021/01/13 12:28:06;;;;;;;10.30;3.83;;;11.40;83.80;;;;;;5042004;28;20083;-76
2021/01/13 12:30:32;;;;;;;12.45;4.65;;;11.40;83.80;;;;;;5042222;28;20156;-76
2021/01/13 12:33:01;;;;;;;7.97;3.33;;;11.40;83.70;;;;;;5042790;28;20108;-76
2021/01/13 12:35:29;;;;;;;10.63;4.20;;;11.40;83.70;;;;;;5025893;28;20033;-76
2021/01/13 12:37:55;;;;;;;9.63;3.67;;;11.40;83.70;;;;;;5046836;28;20113;-75
2021/01/13 12:40:32;;;;;;;10.10;3.63;;;11.40;83.70;;;;;;5063174;28;20045;-75
2021/01/13 12:43:18;;;;;;;11.25;3.95;;;11.40;83.70;;;;;;5061910;28;20444;-76
2021/01/13 12:45:46;;;;;;;14.57;3.80;;;11.40;83.80;;;;;;5066609;28;20086;-76
2021/01/13 12:48:13;;;;;;;11.05;3.58;;;11.40;83.70;;;;;;5062812;28;20044;-76
2021/01/13 12:50:39;;;;;;;7.65;3.42;;;11.40;83.70;;;;;;5044598;28;20500;-76
2021/01/13 12:53:05;;;;;;;12.20;4.47;;;11.40;83.70;;;;;;5058259;28;20364;-76
2021/01/13 12:55:32;;;;;;;15.48;3.78;;;11.40;83.70;;;;;;5052848;28;20210;-75
2021/01/13 12:57:58;;;;;;;9.90;4.05;;;11.40;83.70;;;;;;5045915;28;20122;-75
2021/01/13 13:00:25;;;;;;;9.38;3.53;;;11.40;83.60;;;;;;5045971;28;20604;-75
2021/01/13 13:02:51;;;;;;;20.48;4.53;;;11.30;83.40;;;;;;5045550;28;20049;-75
2021/01/13 13:05:17;;;;;;;16.25;4.30;;;11.30;83.40;;;;;;5045598;28;20048;-75
2021/01/13 13:07:43;;;;;;;10.98;3.50;;;11.30;83.40;;;;;;5045558;28;20104;-75
2021/01/13 13:10:10;;;;;;;9.57;3.33;;;11.30;83.40;;;;;;5045391;28;20083;-75